Time;durP1;ratioP1;P1;durP2;ratioP2;P2;SDS_P1;SDS_P2;PMS_P1;PMS_P2;Temp;Humidity;BMP_temperature;BMP_pressure;BME280_temperature;BME280_humidity;BME280_pressure;Samples;Min_cycle;Max_cycle;Signal;HPM_P1;HPM_P2
2023/11/29 00:01:45;;;;;;;4.22;3.38;;;-1.20;99.90;;;;;;5040251;28;20132;-77
2023/11/29 00:04:11;;;;;;;5.78;3.67;;;-1.20;99.90;;;;;;5046996;28;20124;-77
2023/11/29 00:06:37;;;;;;;4.50;3.47;;;-1.10;99.90;;;;;;5044013;28;20047;-74
2023/11/29 00:09:03;;;;;;;6.10;3.90;;;-1.10;99.90;;;;;;5050644;28;20131;-75
2023/11/29 00:11:29;;;;;;;5.07;3.55;;;-1.20;99.90;;;;;;5044301;28;20025;-77
2023/11/29 00:13:54;;;;;;;5.18;3.78;;;-1.20;99.90;;;;;;5045400;28;20041;-77
2023/11/29 00:16:20;;;;;;;6.07;3.92;;;-1.20;99.90;;;;;;5043312;28;20033;-76
2023/11/29 00:18:48;;;;;;;5.43;3.90;;;-1.10;99.90;;;;;;5045971;28;20036;-76
2023/11/29 00:21:14;;;;;;;4.80;3.60;;;-1.20;99.90;;;;;;5052926;28;20049;-76
2023/11/29 00:23:39;;;;;;;3.83;3.40;;;-1.20;99.90;;;;;;5045446;28;20029;-76
2023/11/29 00:26:06;;;;;;;5.35;3.40;;;-1.20;99.90;;;;;;5049509;28;20032;-76
2023/11/29 00:28:32;;;;;;;7.40;3.47;;;-1.20;99.90;;;;;;5048970;28;20454;-76
2023/11/29 00:30:58;;;;;;;4.88;3.67;;;-1.20;99.90;;;;;;5051255;28;20487;-76
2023/11/29 00:33:24;;;;;;;4.53;3.40;;;-1.20;99.90;;;;;;5049640;28;20033;-77
2023/11/29 00:35:51;;;;;;;4.20;3.38;;;-1.20;99.90;;;;;;5042281;28;20034;-77
2023/11/29 00:38:17;;;;;;;3.53;3.10;;;-1.20;99.90;;;;;;5046632;28;20745;-77
2023/11/29 00:40:43;;;;;;;3.63;3.05;;;-1.20;99.90;;;;;;5048715;28;20426;-77
2023/11/29 00:43:08;;;;;;;4.85;3.40;;;-1.30;99.90;;;;;;5051330;28;20024;-77
2023/11/29 00:45:34;;;;;;;5.05;3.70;;;-1.30;99.90;;;;;;5054620;28;20024;-77
2023/11/29 00:48:00;;;;;;;4.72;3.63;;;-1.30;99.90;;;;;;5051674;28;20447;-77
2023/11/29 00:50:26;;;;;;;6.93;3.92;;;-1.20;99.90;;;;;;5049250;28;20040;-77
2023/11/29 00:52:52;;;;;;;3.95;3.38;;;-1.30;99.90;;;;;;5032753;28;20049;-76
2023/11/29 00:55:18;;;;;;;5.22;3.40;;;-1.30;99.90;;;;;;5049805;28;20027;-76
2023/11/29 00:57:51;;;;;;;5.00;3.30;;;-1.30;99.90;;;;;;5045268;28;20057;-77
2023/11/29 01:00:17;;;;;;;4.90;3.50;;;-1.40;99.90;;;;;;5052987;28;20149;-77
2023/11/29 01:02:43;;;;;;;5.22;3.58;;;-1.30;99.90;;;;;;5045791;28;20049;-77
2023/11/29 01:05:09;;;;;;;6.93;3.50;;;-1.30;99.90;;;;;;5052303;28;20465;-77
2023/11/29 01:07:35;;;;;;;4.50;3.30;;;-1.30;99.90;;;;;;5036910;28;20037;-75
2023/11/29 01:10:00;;;;;;;3.28;2.97;;;-1.40;99.90;;;;;;5043874;28;20430;-77
2023/11/29 01:12:26;;;;;;;4.38;3.22;;;-1.40;99.90;;;;;;5050892;28;20090;-75
2023/11/29 01:14:54;;;;;;;3.72;2.85;;;-1.40;99.90;;;;;;5052951;28;20057;-76
2023/11/29 01:17:21;;;;;;;4.15;3.15;;;-1.40;99.90;;;;;;5055236;28;20072;-77
2023/11/29 01:19:54;;;;;;;4.30;3.17;;;-1.30;99.90;;;;;;5053400;28;20033;-77
2023/11/29 01:22:23;;;;;;;3.50;2.92;;;-1.40;99.90;;;;;;5050332;28;20465;-77
2023/11/29 01:24:49;;;;;;;4.20;2.97;;;-1.40;99.90;;;;;;5045906;28;20041;-77
2023/11/29 01:27:15;;;;;;;3.40;2.75;;;-1.50;99.90;;;;;;5046008;28;20096;-77
2023/11/29 01:29:41;;;;;;;3.25;2.75;;;-1.50;99.90;;;;;;5040315;28;20029;-77
2023/11/29 01:32:07;;;;;;;3.28;2.60;;;-1.40;99.90;;;;;;5042445;28;20030;-77
2023/11/29 01:34:33;;;;;;;3.45;2.45;;;-1.50;99.90;;;;;;5038435;28;20507;-77
2023/11/29 01:36:59;;;;;;;2.50;2.28;;;-1.50;99.90;;;;;;5027947;28;20033;-77
2023/11/29 01:39:25;;;;;;;3.47;2.75;;;-1.50;99.90;;;;;;5042707;28;20804;-77
2023/11/29 01:41:50;;;;;;;3.17;2.88;;;-1.60;99.90;;;;;;5042730;28;20553;-77
2023/11/29 01:44:16;;;;;;;3.40;2.70;;;-1.70;99.90;;;;;;5045462;28;20028;-77
2023/11/29 01:46:42;;;;;;;3.88;3.00;;;-1.70;99.90;;;;;;5046297;28;20025;-77
2023/11/29 01:49:08;;;;;;;4.55;3.25;;;-1.60;99.90;;;;;;5057923;28;20029;-77
2023/11/29 01:51:35;;;;;;;3.67;2.88;;;-1.60;99.90;;;;;;5040201;28;20048;-77
2023/11/29 01:54:03;;;;;;;2.78;2.47;;;-1.60;99.90;;;;;;5040100;28;20043;-77
2023/11/29 01:56:28;;;;;;;3.45;2.67;;;-1.60;99.90;;;;;;5044351;28;20043;-77
2023/11/29 01:58:55;;;;;;;3.92;3.00;;;-1.60;99.90;;;;;;5032615;28;20029;-77
2023/11/29 02:01:21;;;;;;;3.45;2.80;;;-1.60;99.90;;;;;;5045765;28;20048;-77
2023/11/29 02:03:47;;;;;;;4.40;3.08;;;-1.60;99.90;;;;;;5043726;28;20029;-77
2023/11/29 02:06:13;;;;;;;2.83;2.35;;;-1.60;99.90;;;;;;5049815;28;20072;-77
2023/11/29 02:08:39;;;;;;;3.03;2.72;;;-1.60;99.90;;;;;;5039455;28;20110;-77
2023/11/29 02:11:05;;;;;;;2.92;2.38;;;-1.70;99.90;;;;;;5042350;28;20040;-77
2023/11/29 02:13:31;;;;;;;4.22;2.97;;;-1.60;99.90;;;;;;5042663;28;20057;-77
2023/11/29 02:15:56;;;;;;;4.88;2.85;;;-1.70;99.90;;;;;;5045708;28;20482;-77
2023/11/29 02:18:25;;;;;;;4.22;2.70;;;-1.70;99.90;;;;;;5043335;28;20029;-77
2023/11/29 02:20:50;;;;;;;3.25;2.53;;;-1.70;99.90;;;;;;5040596;28;20044;-77
2023/11/29 02:23:42;;;;;;;4.20;3.10;;;-1.70;99.90;;;;;;5047314;28;20047;-77
2023/11/29 02:26:08;;;;;;;2.80;2.50;;;-1.70;99.90;;;;;;5039859;28;20052;-77
2023/11/29 02:28:34;;;;;;;2.97;2.67;;;-1.70;99.90;;;;;;5042449;28;20074;-77
2023/11/29 02:30:59;;;;;;;3.72;2.70;;;-1.80;99.90;;;;;;5045340;28;20086;-77
2023/11/29 02:33:25;;;;;;;3.05;2.17;;;-1.80;99.90;;;;;;5042832;28;20119;-77
2023/11/29 02:35:51;;;;;;;2.90;2.35;;;-1.90;99.90;;;;;;5051255;28;20032;-77
2023/11/29 02:38:18;;;;;;;3.05;2.25;;;-1.90;99.90;;;;;;5045419;28;20028;-77
2023/11/29 02:40:43;;;;;;;2.90;2.50;;;-1.90;99.90;;;;;;5037854;28;20403;-77
2023/11/29 02:43:09;;;;;;;2.95;2.25;;;-1.90;99.90;;;;;;5051184;28;20032;-77
2023/11/29 02:45:35;;;;;;;2.97;2.47;;;-1.90;99.90;;;;;;5046252;28;20038;-77
2023/11/29 02:48:01;;;;;;;3.13;2.58;;;-1.90;99.90;;;;;;5034789;28;20033;-77
2023/11/29 02:50:26;;;;;;;3.67;2.97;;;-1.90;99.90;;;;;;5040103;28;20033;-77
2023/11/29 02:52:52;;;;;;;3.17;2.65;;;-1.90;99.90;;;;;;5045950;28;20389;-78
2023/11/29 02:55:18;;;;;;;3.28;2.50;;;-1.80;99.90;;;;;;5066932;28;20049;-77
2023/11/29 02:57:47;;;;;;;3.17;2.45;;;-1.90;99.90;;;;;;5034463;28;20082;-77
2023/11/29 03:00:14;;;;;;;3.22;2.17;;;-1.90;99.90;;;;;;5049055;28;20090;-77
2023/11/29 03:02:42;;;;;;;2.83;2.50;;;-1.90;99.90;;;;;;5048320;28;20456;-77
2023/11/29 03:05:08;;;;;;;2.75;2.25;;;-1.90;99.90;;;;;;5048362;28;20059;-77
2023/11/29 03:07:33;;;;;;;3.42;2.63;;;-1.90;99.90;;;;;;5047645;28;20267;-78
2023/11/29 03:09:59;;;;;;;4.72;2.50;;;-1.90;99.90;;;;;;5036062;28;20395;-77
2023/11/29 03:12:25;;;;;;;2.63;2.42;;;-1.90;99.90;;;;;;5051589;28;20037;-77
2023/11/29 03:14:51;;;;;;;2.58;2.20;;;-2.00;99.90;;;;;;5046386;28;20051;-77
2023/11/29 03:17:16;;;;;;;2.97;2.40;;;-2.10;99.90;;;;;;5053663;28;20132;-78
2023/11/29 03:19:42;;;;;;;2.72;2.13;;;-2.10;99.90;;;;;;5044028;28;20025;-77
2023/11/29 03:22:08;;;;;;;3.10;2.47;;;-2.30;99.90;;;;;;5036146;28;20025;-77
2023/11/29 03:24:34;;;;;;;2.70;2.33;;;-2.40;99.90;;;;;;5043240;28;20033;-78
2023/11/29 03:26:59;;;;;;;2.47;2.10;;;-2.60;99.90;;;;;;5042948;28;20087;-77
2023/11/29 03:29:25;;;;;;;3.53;2.22;;;-2.70;99.90;;;;;;5039430;28;20060;-77
2023/11/29 03:31:51;;;;;;;3.33;2.28;;;-2.90;99.90;;;;;;5038291;28;20123;-77
2023/11/29 03:34:16;;;;;;;2.72;2.10;;;-3.00;99.90;;;;;;5035713;28;20037;-77
2023/11/29 03:36:43;;;;;;;2.35;2.13;;;-3.10;99.90;;;;;;5045138;28;20044;-78
2023/11/29 03:39:09;;;;;;;2.58;2.22;;;-3.20;99.90;;;;;;5044855;28;20033;-78
2023/11/29 03:41:35;;;;;;;3.53;2.58;;;-3.30;99.90;;;;;;5041634;28;20068;-77
2023/11/29 03:44:04;;;;;;;3.40;2.40;;;-3.40;99.90;;;;;;5043873;28;20065;-77
2023/11/29 03:46:29;;;;;;;2.45;2.25;;;-3.40;99.90;;;;;;5045615;28;20064;-77
2023/11/29 03:48:55;;;;;;;3.20;2.53;;;-3.40;99.90;;;;;;5038012;28;20053;-78
2023/11/29 03:51:21;;;;;;;3.05;2.50;;;-3.40;99.90;;;;;;5048943;28;20032;-78
2023/11/29 03:53:46;;;;;;;4.93;2.42;;;-3.50;99.90;;;;;;5046283;28;20403;-77
2023/11/29 03:56:12;;;;;;;3.47;2.63;;;-3.50;99.90;;;;;;5048103;28;20397;-77
2023/11/29 03:58:38;;;;;;;3.45;2.50;;;-3.50;99.90;;;;;;5050213;28;20100;-77
2023/11/29 04:01:04;;;;;;;2.95;2.65;;;-3.50;99.90;;;;;;5052257;28;20029;-77
2023/11/29 04:03:30;;;;;;;3.20;2.72;;;-3.60;99.90;;;;;;5049813;28;20021;-77
2023/11/29 04:05:55;;;;;;;2.95;2.42;;;-3.60;99.90;;;;;;5046104;28;20531;-78
2023/11/29 04:08:21;;;;;;;3.67;2.65;;;-3.60;99.90;;;;;;5040492;28;20040;-77
2023/11/29 04:10:47;;;;;;;3.47;2.88;;;-3.70;99.90;;;;;;5040588;28;20403;-78
2023/11/29 04:13:13;;;;;;;3.50;2.85;;;-3.80;99.90;;;;;;5034266;28;20049;-78
2023/11/29 04:15:39;;;;;;;4.10;2.95;;;-3.90;99.90;;;;;;5051326;28;20033;-77
2023/11/29 04:18:05;;;;;;;4.35;3.22;;;-4.00;99.90;;;;;;5051274;28;20026;-78
2023/11/29 04:20:30;;;;;;;3.97;3.15;;;-4.00;99.90;;;;;;5047306;28;21029;-78
2023/11/29 04:22:57;;;;;;;4.78;3.40;;;-4.10;99.90;;;;;;5046722;28;20040;-78
2023/11/29 04:25:23;;;;;;;3.50;2.78;;;-4.20;99.90;;;;;;5044828;28;20026;-78
2023/11/29 04:27:49;;;;;;;4.22;3.30;;;-4.30;99.90;;;;;;5052782;28;20025;-78
2023/11/29 04:30:15;;;;;;;3.65;3.08;;;-4.30;99.90;;;;;;5045149;28;20395;-78
2023/11/29 04:32:41;;;;;;;4.00;3.00;;;-4.40;99.90;;;;;;5050005;28;20391;-78
2023/11/29 04:35:08;;;;;;;5.57;3.28;;;-4.40;99.90;;;;;;5047627;28;20034;-77
2023/11/29 04:37:34;;;;;;;3.72;2.83;;;-4.40;99.90;;;;;;5047883;28;20080;-78
2023/11/29 04:40:00;;;;;;;4.70;3.58;;;-4.50;99.90;;;;;;5030994;28;20041;-78
2023/11/29 04:42:26;;;;;;;4.55;3.28;;;-4.60;99.90;;;;;;5050279;28;20029;-78
2023/11/29 04:44:52;;;;;;;4.15;3.38;;;-4.60;99.90;;;;;;5048608;28;20309;-78
2023/11/29 04:47:18;;;;;;;5.13;3.72;;;-4.60;99.90;;;;;;5033095;28;20029;-78
2023/11/29 04:49:45;;;;;;;7.22;4.03;;;-4.60;99.90;;;;;;5045894;28;20043;-78
2023/11/29 04:52:11;;;;;;;6.07;4.45;;;-4.50;99.90;;;;;;5041468;28;20033;-78
2023/11/29 04:54:36;;;;;;;6.68;4.43;;;-4.50;99.90;;;;;;5048512;28;20040;-78
2023/11/29 04:57:02;;;;;;;5.35;4.47;;;-4.40;99.90;;;;;;5049379;28;20041;-78
2023/11/29 04:59:28;;;;;;;6.85;4.68;;;-4.20;99.90;;;;;;5047127;28;20029;-78
2023/11/29 05:01:54;;;;;;;7.40;5.50;;;-4.10;99.90;;;;;;5045602;28;20377;-78
2023/11/29 05:04:20;;;;;;;6.45;4.03;;;-4.00;99.90;;;;;;5047704;28;20028;-78
2023/11/29 05:06:46;;;;;;;5.40;4.35;;;-3.90;99.90;;;;;;5047725;28;20045;-78
2023/11/29 05:09:14;;;;;;;6.07;3.85;;;-3.80;99.90;;;;;;5043171;28;20063;-78
2023/11/29 05:11:40;;;;;;;7.43;4.97;;;-3.80;99.90;;;;;;5038340;28;20519;-77
2023/11/29 05:14:06;;;;;;;8.75;6.07;;;-3.70;99.90;;;;;;5041500;28;20036;-78
2023/11/29 05:16:36;;;;;;;6.38;5.05;;;-3.60;99.90;;;;;;5048491;28;20472;-78
2023/11/29 05:19:02;;;;;;;7.60;5.32;;;-3.50;99.90;;;;;;5032728;28;20028;-78
2023/11/29 05:21:27;;;;;;;9.80;5.72;;;-3.50;99.90;;;;;;5050799;28;20597;-78
2023/11/29 05:23:54;;;;;;;7.70;5.28;;;-3.40;99.90;;;;;;5043824;28;20044;-78
2023/11/29 05:26:20;;;;;;;6.60;4.80;;;-3.40;99.90;;;;;;5037286;28;20033;-78
2023/11/29 05:28:45;;;;;;;10.13;5.50;;;-3.40;99.90;;;;;;5047987;28;20033;-78
2023/11/29 05:31:13;;;;;;;8.80;5.38;;;-3.30;99.90;;;;;;5049251;28;20421;-78
2023/11/29 05:33:38;;;;;;;9.00;5.93;;;-3.30;99.90;;;;;;5051780;28;20465;-78
2023/11/29 05:36:05;;;;;;;10.57;6.15;;;-3.30;99.90;;;;;;5050786;28;20040;-78
2023/11/29 05:38:31;;;;;;;8.82;6.18;;;-3.20;99.90;;;;;;5055164;28;20041;-78
2023/11/29 05:40:57;;;;;;;11.98;6.00;;;-3.20;99.90;;;;;;5051151;28;20036;-78
2023/11/29 05:43:23;;;;;;;10.57;5.90;;;-3.10;99.90;;;;;;5049231;28;20487;-78
2023/11/29 05:45:49;;;;;;;9.85;6.03;;;-3.10;99.90;;;;;;5050083;28;20072;-78
2023/11/29 05:48:15;;;;;;;12.15;6.80;;;-3.00;99.90;;;;;;5048887;28;20025;-78
2023/11/29 05:50:40;;;;;;;10.15;6.47;;;-3.00;99.90;;;;;;5047247;28;20033;-77
2023/11/29 05:53:06;;;;;;;10.30;6.07;;;-3.00;99.90;;;;;;5046957;28;20135;-77
2023/11/29 05:55:34;;;;;;;11.85;6.47;;;-3.00;99.90;;;;;;5052535;28;20024;-78
2023/11/29 05:58:03;;;;;;;10.93;6.82;;;-3.00;99.90;;;;;;5049389;28;20082;-78
2023/11/29 06:00:29;;;;;;;9.98;6.68;;;-3.00;99.90;;;;;;5048704;28;20269;-78
2023/11/29 06:02:55;;;;;;;10.77;7.05;;;-2.90;99.90;;;;;;5043423;28;20495;-78
2023/11/29 06:05:20;;;;;;;11.35;7.10;;;-2.90;99.90;;;;;;5048498;28;20032;-78
2023/11/29 06:07:47;;;;;;;11.45;7.07;;;-2.80;99.90;;;;;;5046743;28;20035;-78
2023/11/29 06:10:13;;;;;;;11.05;6.88;;;-2.70;99.90;;;;;;5053839;28;20418;-78
2023/11/29 06:12:39;;;;;;;11.80;7.35;;;-2.70;99.90;;;;;;5041118;28;20329;-78
2023/11/29 06:15:05;;;;;;;11.38;7.18;;;-2.70;99.90;;;;;;5047971;28;20112;-77
2023/11/29 06:17:32;;;;;;;11.10;7.20;;;-2.60;99.90;;;;;;5040093;28;20036;-77
2023/11/29 06:19:58;;;;;;;13.90;8.15;;;-2.60;99.90;;;;;;5044671;28;20123;-78
2023/11/29 06:22:24;;;;;;;16.38;8.63;;;-2.60;99.90;;;;;;5040908;28;20570;-77
2023/11/29 06:24:51;;;;;;;13.45;8.00;;;-2.50;99.90;;;;;;5039670;28;20061;-78
2023/11/29 06:27:17;;;;;;;14.65;8.10;;;-2.50;99.90;;;;;;5042412;28;20111;-77
2023/11/29 06:29:43;;;;;;;13.93;8.43;;;-2.50;99.90;;;;;;5047868;28;20475;-77
2023/11/29 06:32:09;;;;;;;12.73;8.07;;;-2.50;99.90;;;;;;5040897;28;20112;-77
2023/11/29 06:34:35;;;;;;;13.02;7.32;;;-2.50;99.90;;;;;;5050170;28;20384;-78
2023/11/29 06:37:00;;;;;;;15.77;8.32;;;-2.60;99.90;;;;;;5046917;28;20047;-77
2023/11/29 06:39:26;;;;;;;16.30;8.45;;;-2.60;99.90;;;;;;5037189;28;20040;-78
2023/11/29 06:41:52;;;;;;;13.30;7.78;;;-2.60;99.90;;;;;;5040960;28;20575;-77
2023/11/29 06:44:18;;;;;;;11.35;7.15;;;-2.60;99.90;;;;;;5045329;28;20029;-77
2023/11/29 06:46:43;;;;;;;12.80;8.05;;;-2.60;99.90;;;;;;5022555;28;20025;-78
2023/11/29 06:49:09;;;;;;;11.55;8.02;;;-2.70;99.90;;;;;;5042560;28;20029;-78
2023/11/29 06:51:38;;;;;;;13.70;8.00;;;-2.70;99.90;;;;;;5044514;28;20033;-78
2023/11/29 06:54:04;;;;;;;14.30;8.32;;;-2.60;99.90;;;;;;5056386;28;20034;-78
2023/11/29 06:56:30;;;;;;;14.07;8.52;;;-2.60;99.90;;;;;;5045532;28;20028;-78
2023/11/29 06:58:56;;;;;;;13.30;8.10;;;-2.70;99.90;;;;;;5041890;28;20116;-78
2023/11/29 07:01:21;;;;;;;12.25;8.15;;;-2.70;99.90;;;;;;5044613;28;20052;-78
2023/11/29 07:03:48;;;;;;;14.40;8.10;;;-2.80;99.90;;;;;;5032309;28;20033;-78
2023/11/29 07:06:24;;;;;;;14.55;8.60;;;-2.70;99.90;;;;;;5043979;28;20036;-78
2023/11/29 07:08:50;;;;;;;13.65;8.55;;;-2.70;99.90;;;;;;5034589;28;20079;-78
2023/11/29 07:11:16;;;;;;;13.38;8.23;;;-2.80;99.90;;;;;;5045536;28;20025;-78
2023/11/29 07:13:43;;;;;;;13.35;8.48;;;-2.80;99.90;;;;;;5039740;28;20112;-78
2023/11/29 07:16:09;;;;;;;13.63;8.18;;;-2.80;99.90;;;;;;5038880;28;20037;-77
2023/11/29 07:18:37;;;;;;;13.70;8.15;;;-2.80;99.90;;;;;;5032730;28;20111;-78
2023/11/29 07:21:03;;;;;;;12.25;7.88;;;-2.80;99.90;;;;;;5045186;28;20037;-78
2023/11/29 07:23:29;;;;;;;14.50;8.40;;;-2.80;99.90;;;;;;5043761;28;20445;-78
2023/11/29 07:25:55;;;;;;;13.93;8.07;;;-2.80;99.90;;;;;;5039745;28;20033;-78
2023/11/29 07:28:21;;;;;;;13.27;8.13;;;-2.80;99.90;;;;;;5038154;28;20114;-78
2023/11/29 07:30:46;;;;;;;13.43;8.10;;;-2.80;99.90;;;;;;5049397;28;20032;-77
2023/11/29 07:33:12;;;;;;;12.95;8.00;;;-2.70;99.90;;;;;;5037662;28;20021;-77
2023/11/29 07:35:38;;;;;;;16.67;8.93;;;-2.70;99.90;;;;;;5052185;28;20120;-77
2023/11/29 07:38:03;;;;;;;13.30;8.00;;;-2.70;99.90;;;;;;5039439;28;20471;-77
2023/11/29 07:40:29;;;;;;;14.20;8.25;;;-2.70;99.90;;;;;;5050694;28;20032;-78
2023/11/29 07:42:55;;;;;;;16.35;9.25;;;-2.70;99.90;;;;;;5045197;28;20048;-78
2023/11/29 07:45:21;;;;;;;14.02;8.02;;;-2.70;99.90;;;;;;5057915;28;20108;-76
2023/11/29 07:47:47;;;;;;;12.63;8.18;;;-2.80;99.90;;;;;;5048297;28;20214;-76
2023/11/29 07:50:13;;;;;;;15.52;9.60;;;-2.80;99.90;;;;;;5041278;28;20026;-77
2023/11/29 07:52:42;;;;;;;14.13;9.35;;;-2.80;99.90;;;;;;5053775;28;20048;-77
2023/11/29 07:55:08;;;;;;;14.63;9.02;;;-2.80;99.90;;;;;;5044126;28;20033;-76
2023/11/29 07:57:34;;;;;;;15.40;8.70;;;-2.70;99.90;;;;;;5045958;28;20028;-77
2023/11/29 08:00:05;;;;;;;15.25;8.82;;;-2.60;99.90;;;;;;5041106;28;20061;-76
2023/11/29 08:02:38;;;;;;;14.20;8.02;;;-2.60;99.90;;;;;;5041936;28;20128;-77
2023/11/29 08:05:04;;;;;;;14.07;8.45;;;-2.50;99.90;;;;;;5048446;28;20022;-76
2023/11/29 08:07:32;;;;;;;15.63;8.38;;;-2.40;99.90;;;;;;5041537;28;20043;-76
2023/11/29 08:10:01;;;;;;;15.55;8.88;;;-2.30;99.90;;;;;;5044476;28;20239;-76
2023/11/29 08:12:27;;;;;;;14.95;9.05;;;-2.20;99.90;;;;;;5052953;28;20484;-77
2023/11/29 08:14:53;;;;;;;16.00;8.98;;;-2.10;99.90;;;;;;5048508;28;20504;-78
2023/11/29 08:17:19;;;;;;;14.55;9.30;;;-2.10;99.90;;;;;;5048430;28;20087;-77
2023/11/29 08:19:45;;;;;;;13.90;8.65;;;-2.00;99.90;;;;;;5045794;28;20268;-77
2023/11/29 08:22:11;;;;;;;12.88;7.90;;;-2.00;99.90;;;;;;5046325;28;20594;-77
2023/11/29 08:24:37;;;;;;;13.32;8.40;;;-1.90;99.90;;;;;;5043807;28;20043;-77
2023/11/29 08:27:03;;;;;;;14.98;8.02;;;-1.90;99.90;;;;;;5050064;28;20033;-77
2023/11/29 08:29:29;;;;;;;15.10;8.65;;;-1.90;99.90;;;;;;5046664;28;20029;-77
2023/11/29 08:31:55;;;;;;;17.52;9.25;;;-1.80;99.90;;;;;;5057724;28;20044;-78
2023/11/29 08:34:24;;;;;;;13.10;8.27;;;-1.80;99.90;;;;;;5055711;28;20059;-77
2023/11/29 08:36:49;;;;;;;14.93;8.07;;;-1.80;99.90;;;;;;5056348;28;20435;-78
2023/11/29 08:39:15;;;;;;;14.27;7.90;;;-1.80;99.90;;;;;;5056780;28;20032;-78
2023/11/29 08:41:43;;;;;;;14.55;8.02;;;-1.70;99.90;;;;;;5058510;28;20036;-78
2023/11/29 08:44:12;;;;;;;16.80;9.25;;;-1.70;99.90;;;;;;5064334;28;20461;-78
2023/11/29 08:46:37;;;;;;;16.20;8.48;;;-1.70;99.90;;;;;;5053785;28;20095;-76
2023/11/29 08:49:03;;;;;;;17.13;9.32;;;-1.60;99.90;;;;;;5058012;28;20044;-78
2023/11/29 08:51:29;;;;;;;17.13;9.57;;;-1.60;99.90;;;;;;5062561;28;20055;-78
2023/11/29 08:53:55;;;;;;;16.63;9.43;;;-1.50;99.90;;;;;;5059405;28;20036;-78
2023/11/29 08:56:21;;;;;;;16.08;9.20;;;-1.40;99.90;;;;;;5055048;28;20055;-76
2023/11/29 08:58:48;;;;;;;17.13;9.77;;;-1.40;99.90;;;;;;5048157;28;20463;-77
2023/11/29 09:01:17;;;;;;;17.80;9.05;;;-1.40;99.90;;;;;;5053300;28;20024;-77
2023/11/29 09:03:43;;;;;;;15.73;9.07;;;-1.30;99.90;;;;;;5036658;28;20080;-77
2023/11/29 09:06:08;;;;;;;18.85;10.73;;;-1.30;99.90;;;;;;5043398;28;20033;-76
2023/11/29 09:08:34;;;;;;;21.17;8.85;;;-1.30;99.90;;;;;;5043832;28;20029;-78
2023/11/29 09:11:16;;;;;;;16.40;9.63;;;-1.20;99.90;;;;;;5065165;28;20499;-77
2023/11/29 09:13:44;;;;;;;16.80;9.90;;;-1.20;99.90;;;;;;5046687;28;20030;-79
2023/11/29 09:16:11;;;;;;;18.75;10.00;;;-1.10;99.90;;;;;;5045563;28;20136;-78
2023/11/29 09:18:36;;;;;;;16.48;10.23;;;-1.10;99.90;;;;;;5037753;28;20069;-77
2023/11/29 09:21:03;;;;;;;17.85;10.40;;;-1.00;99.90;;;;;;5041379;28;20056;-78
2023/11/29 09:23:28;;;;;;;18.38;10.23;;;-1.00;99.90;;;;;;5050561;28;20031;-76
2023/11/29 09:25:54;;;;;;;19.83;10.65;;;-1.00;99.90;;;;;;5073534;28;20029;-76
2023/11/29 09:28:23;;;;;;;17.83;10.30;;;-1.00;99.90;;;;;;5038462;28;20115;-78
2023/11/29 09:30:49;;;;;;;19.27;10.25;;;-1.00;99.90;;;;;;5050621;28;20089;-76
2023/11/29 09:33:15;;;;;;;21.92;11.30;;;-1.00;99.90;;;;;;5049504;28;20186;-78
2023/11/29 09:35:42;;;;;;;18.90;9.73;;;-1.00;99.90;;;;;;5050236;28;20040;-76
2023/11/29 09:38:09;;;;;;;17.65;10.73;;;-1.00;99.90;;;;;;5049898;28;20032;-78
2023/11/29 09:40:34;;;;;;;19.13;10.43;;;-0.90;99.90;;;;;;5039140;28;20040;-78
2023/11/29 09:43:01;;;;;;;15.70;9.63;;;-0.90;99.90;;;;;;5047066;28;20392;-78
2023/11/29 09:45:27;;;;;;;19.80;11.30;;;-0.90;99.90;;;;;;5040445;28;20040;-78
2023/11/29 09:47:53;;;;;;;17.60;9.60;;;-0.90;99.90;;;;;;5041424;28;20027;-78
2023/11/29 09:50:19;;;;;;;17.92;10.20;;;-0.80;99.90;;;;;;5046979;28;20033;-79
2023/11/29 09:52:46;;;;;;;19.27;10.80;;;-0.80;99.90;;;;;;5041040;28;20033;-78
2023/11/29 09:55:12;;;;;;;18.52;10.57;;;-0.80;99.90;;;;;;5041140;28;20495;-77
2023/11/29 09:57:38;;;;;;;20.58;11.15;;;-0.70;99.90;;;;;;5035689;28;20064;-78
2023/11/29 10:00:10;;;;;;;18.83;10.25;;;-0.70;99.90;;;;;;5035696;28;20121;-76
2023/11/29 10:02:38;;;;;;;17.38;10.20;;;-0.70;99.90;;;;;;5045091;28;20029;-78
2023/11/29 10:05:04;;;;;;;22.15;10.48;;;-0.70;99.90;;;;;;5044327;28;20029;-78
2023/11/29 10:07:29;;;;;;;16.15;9.50;;;-0.60;99.90;;;;;;5044171;28;20033;-77
2023/11/29 10:10:00;;;;;;;18.60;10.93;;;-0.60;99.90;;;;;;5038529;28;20092;-77
2023/11/29 10:12:26;;;;;;;20.17;10.50;;;-0.60;99.90;;;;;;5037449;28;20059;-76
2023/11/29 10:14:56;;;;;;;17.20;10.25;;;-0.60;99.90;;;;;;5044738;28;20130;-77
2023/11/29 10:17:26;;;;;;;15.13;9.15;;;-0.60;99.90;;;;;;5041415;28;20048;-79
2023/11/29 10:19:55;;;;;;;20.77;11.15;;;-0.50;99.90;;;;;;5031823;28;20438;-79
2023/11/29 10:22:21;;;;;;;16.08;9.30;;;-0.50;99.90;;;;;;5040165;28;20030;-77
2023/11/29 10:24:48;;;;;;;17.55;10.25;;;-0.50;99.90;;;;;;5044580;28;20040;-78
2023/11/29 10:27:17;;;;;;;18.42;9.30;;;-0.50;99.90;;;;;;5049427;28;20043;-78
2023/11/29 10:29:43;;;;;;;17.60;9.88;;;-0.50;99.90;;;;;;5043004;28;20055;-78
2023/11/29 10:32:08;;;;;;;17.55;9.82;;;-0.50;99.90;;;;;;5044680;28;20037;-78
2023/11/29 10:34:36;;;;;;;15.60;9.77;;;-0.50;99.90;;;;;;5052488;28;20033;-78
2023/11/29 10:37:04;;;;;;;18.92;10.48;;;-0.40;99.90;;;;;;5044090;28;20096;-78
2023/11/29 10:39:33;;;;;;;16.38;9.68;;;-0.50;99.90;;;;;;5041934;28;20562;-79
2023/11/29 10:42:04;;;;;;;18.83;9.32;;;-0.50;99.90;;;;;;5047541;28;20521;-78
2023/11/29 10:44:34;;;;;;;18.65;9.68;;;-0.40;99.90;;;;;;5051036;28;20124;-78
2023/11/29 10:47:16;;;;;;;16.45;9.50;;;-0.40;99.90;;;;;;5046583;28;20071;-78
2023/11/29 10:49:48;;;;;;;16.92;8.93;;;-0.30;99.90;;;;;;5050939;28;20101;-78
2023/11/29 10:52:17;;;;;;;17.67;9.93;;;-0.40;99.90;;;;;;5044058;28;20033;-78
2023/11/29 10:54:47;;;;;;;17.33;10.02;;;-0.40;99.90;;;;;;5048377;28;20055;-78
2023/11/29 10:57:26;;;;;;;17.85;9.52;;;-0.30;99.90;;;;;;5044854;28;20037;-78
2023/11/29 11:00:06;;;;;;;18.02;9.82;;;-0.30;99.90;;;;;;5045146;28;20033;-78
2023/11/29 11:02:32;;;;;;;17.10;9.13;;;-0.20;99.90;;;;;;5048067;28;20067;-77
2023/11/29 11:05:05;;;;;;;19.75;10.10;;;-0.20;99.90;;;;;;5048309;28;20041;-75
2023/11/29 11:07:47;;;;;;;17.48;9.13;;;-0.10;99.90;;;;;;5047275;28;20033;-76
2023/11/29 11:10:34;;;;;;;18.20;9.68;;;-0.20;99.90;;;;;;5032059;28;20013;-76
2023/11/29 11:13:02;;;;;;;14.23;8.63;;;-0.20;99.90;;;;;;5032247;28;20044;-77
2023/11/29 11:15:28;;;;;;;15.50;9.20;;;-0.20;99.90;;;;;;5053424;28;20025;-77
2023/11/29 11:18:07;;;;;;;18.15;9.32;;;-0.20;99.90;;;;;;5051463;28;20484;-77
2023/11/29 11:21:05;;;;;;;16.42;9.68;;;-0.10;99.90;;;;;;5048048;28;20446;-78
2023/11/29 11:23:31;;;;;;;15.15;9.18;;;-0.10;99.90;;;;;;5041918;28;20070;-76
2023/11/29 11:26:08;;;;;;;12.93;8.27;;;-0.10;99.90;;;;;;5042561;28;20041;-77
2023/11/29 11:28:35;;;;;;;14.82;8.75;;;-0.10;99.90;;;;;;5048227;28;20173;-78
2023/11/29 11:31:06;;;;;;;17.80;9.35;;;-0.10;99.90;;;;;;5031455;28;20453;-77
2023/11/29 11:33:50;;;;;;;17.48;9.40;;;0.00;99.90;;;;;;5044366;28;20075;-77
2023/11/29 11:36:21;;;;;;;14.38;8.48;;;0.00;99.90;;;;;;5041199;28;20025;-78
2023/11/29 11:38:47;;;;;;;17.10;9.15;;;0.00;99.90;;;;;;5043444;28;20021;-78
2023/11/29 11:41:14;;;;;;;15.57;9.02;;;0.00;99.90;;;;;;5043845;28;20051;-78
2023/11/29 11:43:40;;;;;;;14.52;8.50;;;0.00;99.90;;;;;;5037329;28;20032;-77
2023/11/29 11:46:06;;;;;;;15.23;9.30;;;0.10;99.90;;;;;;5031414;28;20545;-78
2023/11/29 11:48:32;;;;;;;17.67;9.45;;;0.10;99.90;;;;;;5039559;28;20036;-75
2023/11/29 11:50:57;;;;;;;16.80;9.65;;;0.10;99.90;;;;;;5030859;28;20644;-76
2023/11/29 11:53:23;;;;;;;15.90;8.77;;;0.10;99.90;;;;;;5036594;28;20033;-78
2023/11/29 11:55:51;;;;;;;15.57;9.35;;;0.10;99.90;;;;;;5044344;28;20044;-78
2023/11/29 11:58:18;;;;;;;16.17;9.13;;;0.20;99.90;;;;;;5042277;28;20037;-78
2023/11/29 12:00:45;;;;;;;16.90;9.18;;;0.20;99.90;;;;;;5041580;28;20518;-78
2023/11/29 12:03:11;;;;;;;14.57;8.68;;;0.20;99.90;;;;;;5052924;28;20068;-77
2023/11/29 12:05:38;;;;;;;15.35;8.93;;;0.20;99.90;;;;;;5025950;28;20520;-76
2023/11/29 12:08:05;;;;;;;15.32;9.23;;;0.20;99.90;;;;;;5044457;28;20124;-78
2023/11/29 12:10:31;;;;;;;13.38;8.00;;;0.20;99.90;;;;;;5038406;28;20079;-78
2023/11/29 12:12:57;;;;;;;14.98;8.93;;;0.20;99.90;;;;;;5029114;28;20040;-77
2023/11/29 12:15:23;;;;;;;15.57;9.05;;;0.20;99.90;;;;;;5042854;28;20119;-79
2023/11/29 12:17:49;;;;;;;14.45;8.65;;;0.10;99.90;;;;;;5053836;28;20043;-78
2023/11/29 12:20:15;;;;;;;14.55;8.25;;;0.10;99.90;;;;;;5040064;28;20037;-76
2023/11/29 12:22:45;;;;;;;15.88;9.35;;;0.10;99.90;;;;;;5043284;28;20494;-76
2023/11/29 12:25:16;;;;;;;15.50;8.85;;;0.10;99.90;;;;;;5045987;28;20025;-78
2023/11/29 12:27:46;;;;;;;15.52;9.23;;;0.10;99.90;;;;;;5045152;28;20033;-77
2023/11/29 12:30:12;;;;;;;15.50;9.32;;;0.10;99.90;;;;;;5039896;28;20076;-77
2023/11/29 12:32:39;;;;;;;14.73;8.77;;;0.10;99.90;;;;;;5040677;28;20021;-76
2023/11/29 12:35:06;;;;;;;16.70;9.27;;;0.20;99.90;;;;;;5041331;28;20030;-76
2023/11/29 12:37:33;;;;;;;15.27;8.80;;;0.20;99.90;;;;;;5043084;28;20488;-76
2023/11/29 12:39:59;;;;;;;17.05;9.45;;;0.20;99.90;;;;;;5047079;28;20041;-76